Time;durP1;ratioP1;P1;durP2;ratioP2;P2;SDS_P1;SDS_P2;PMS_P1;PMS_P2;Temp;Humidity;BMP_temperature;BMP_pressure;BME280_temperature;BME280_humidity;BME280_pressure;Samples;Min_cycle;Max_cycle;Signal;HPM_P1;HPM_P2
2022/01/18 00:01:20;;;;;;;15.57;1.70;;;9.70;90.80;;;;;;5017520;28;20091;-77
2022/01/18 00:03:46;;;;;;;6.57;1.45;;;9.70;90.80;;;;;;5017268;28;20508;-78
2022/01/18 00:06:11;;;;;;;4.65;1.10;;;9.70;90.70;;;;;;5017337;28;20017;-78
2022/01/18 00:08:38;;;;;;;6.78;1.70;;;9.70;90.70;;;;;;5017099;28;20033;-79
2022/01/18 00:11:04;;;;;;;7.13;1.20;;;9.70;90.70;;;;;;5016757;28;20105;-78
2022/01/18 00:13:40;;;;;;;6.35;1.60;;;9.70;90.70;;;;;;5034851;28;20043;-78
2022/01/18 00:18:34;;;;;;;6.35;1.30;;;9.70;90.70;;;;;;5035052;28;20037;-78
2022/01/18 00:23:32;;;;;;;7.45;1.42;;;9.70;90.70;;;;;;5034894;28;20021;-77
2022/01/18 00:25:58;;;;;;;6.82;1.17;;;9.70;90.70;;;;;;5016760;28;20079;-78
2022/01/18 00:28:26;;;;;;;6.63;1.42;;;9.70;90.70;;;;;;5016726;28;20025;-78
2022/01/18 00:34:02;;;;;;;5.05;1.20;;;9.70;90.80;;;;;;4915454;29;20431;-78
2022/01/18 00:36:41;;;;;;;5.47;1.20;;;9.70;90.60;;;;;;5017375;28;20030;-78
2022/01/18 00:39:10;;;;;;;5.28;1.35;;;9.70;90.70;;;;;;5016621;28;20163;-78
2022/01/18 00:41:37;;;;;;;6.15;1.40;;;9.70;90.60;;;;;;5016196;28;20110;-78
2022/01/18 00:44:03;;;;;;;6.38;1.10;;;9.70;90.60;;;;;;5016612;28;20025;-77
2022/01/18 00:46:29;;;;;;;4.70;1.27;;;9.70;90.70;;;;;;5016492;28;20116;-78
2022/01/18 00:48:57;;;;;;;5.70;1.30;;;9.70;90.60;;;;;;5016357;28;20120;-78
2022/01/18 00:51:23;;;;;;;5.82;1.40;;;9.60;90.60;;;;;;5016307;28;20013;-77
2022/01/18 00:53:48;;;;;;;4.78;1.55;;;9.60;90.60;;;;;;5016334;28;20533;-78
2022/01/18 00:56:22;;;;;;;5.10;1.15;;;9.60;90.60;;;;;;5016368;28;20033;-77
2022/01/18 00:58:51;;;;;;;8.35;1.92;;;9.60;90.60;;;;;;5016303;28;20051;-78
2022/01/18 01:01:18;;;;;;;4.40;1.10;;;9.70;90.60;;;;;;5015959;28;20029;-77
2022/01/18 01:03:44;;;;;;;4.95;1.50;;;9.60;90.60;;;;;;5033687;28;20569;-78
2022/01/18 01:06:10;;;;;;;7.50;1.45;;;9.70;90.60;;;;;;5016238;28;20025;-78
2022/01/18 01:08:36;;;;;;;5.53;1.20;;;9.60;90.60;;;;;;5033661;28;20018;-77
2022/01/18 01:11:04;;;;;;;7.25;1.77;;;9.60;90.60;;;;;;5033445;28;20071;-78
2022/01/18 01:13:31;;;;;;;5.72;1.23;;;9.60;90.60;;;;;;5016223;28;20109;-77
2022/01/18 01:34:50;;;;;;;4.50;1.20;;;9.60;90.60;;;;;;5032538;28;20025;-77
2022/01/18 01:42:53;;;;;;;3.80;1.00;;;9.60;90.60;;;;;;5033086;28;20112;-77
2022/01/18 01:45:15;;;;;;;4.97;1.15;;;9.60;90.60;;;;;;5032048;28;20033;-77
2022/01/18 01:47:40;;;;;;;4.18;1.00;;;9.60;90.60;;;;;;5033007;28;20105;-78
2022/01/18 01:50:15;;;;;;;6.05;1.15;;;9.60;90.60;;;;;;5015218;28;20117;-75
2022/01/18 01:52:41;;;;;;;4.72;1.52;;;9.60;90.60;;;;;;5015185;28;20484;-77
2022/01/18 01:55:06;;;;;;;5.82;1.52;;;9.60;90.60;;;;;;5015162;28;20037;-77
2022/01/18 01:57:32;;;;;;;6.18;1.20;;;9.60;90.60;;;;;;5032893;28;20022;-77
2022/01/18 01:59:59;;;;;;;4.25;1.02;;;9.60;90.60;;;;;;5032758;28;20108;-78
2022/01/18 02:02:27;;;;;;;4.72;1.15;;;9.60;90.60;;;;;;5014862;28;20029;-78
2022/01/18 02:04:52;;;;;;;4.00;1.10;;;9.60;90.60;;;;;;5032590;28;20033;-77
2022/01/18 02:07:18;;;;;;;6.82;1.40;;;9.60;90.60;;;;;;5015180;28;20048;-77
2022/01/18 02:09:43;;;;;;;4.25;1.40;;;9.60;90.60;;;;;;5032551;28;20441;-78
2022/01/18 02:12:10;;;;;;;4.90;1.10;;;9.60;90.60;;;;;;5032420;28;20026;-77
2022/01/18 02:14:39;;;;;;;5.40;1.30;;;9.60;90.60;;;;;;5015133;28;20022;-78
2022/01/18 02:22:34;;;;;;;5.57;1.40;;;9.60;90.60;;;;;;5032644;28;20123;-77
2022/01/18 02:24:59;;;;;;;6.70;1.30;;;9.60;90.60;;;;;;5014836;28;20485;-76
2022/01/18 02:27:25;;;;;;;5.82;1.45;;;9.60;90.60;;;;;;5032383;28;20500;-76
2022/01/18 02:29:50;;;;;;;3.80;1.10;;;9.60;90.60;;;;;;5014668;28;20034;-78
2022/01/18 02:32:16;;;;;;;4.32;1.33;;;9.60;90.60;;;;;;5014461;28;20028;-78
2022/01/18 02:34:41;;;;;;;4.78;1.10;;;9.60;90.60;;;;;;5014928;28;20484;-77
2022/01/18 02:37:08;;;;;;;2.70;1.00;;;9.60;90.60;;;;;;5032720;28;20499;-79
2022/01/18 02:39:34;;;;;;;5.95;1.40;;;9.60;90.60;;;;;;5014611;28;20045;-77
2022/01/18 02:42:06;;;;;;;6.25;1.17;;;9.60;90.50;;;;;;5032128;28;20107;-78
2022/01/18 02:44:33;;;;;;;6.63;1.30;;;9.60;90.60;;;;;;5014679;28;20026;-78
2022/01/18 02:46:59;;;;;;;3.75;1.23;;;9.60;90.60;;;;;;5032218;28;20063;-78
2022/01/18 02:49:26;;;;;;;5.13;1.30;;;9.60;90.60;;;;;;5014452;28;20026;-77
2022/01/18 02:51:52;;;;;;;4.95;1.20;;;9.60;90.60;;;;;;5014305;28;20025;-77
2022/01/18 02:54:18;;;;;;;2.72;0.93;;;9.60;90.60;;;;;;5032178;28;20496;-77
2022/01/18 02:56:53;;;;;;;4.30;1.13;;;9.60;90.60;;;;;;5032935;28;20284;-77
2022/01/18 02:59:31;;;;;;;5.85;1.30;;;9.50;90.50;;;;;;5018534;28;20403;-78
2022/01/18 03:04:44;;;;;;;5.38;1.38;;;9.50;90.50;;;;;;5036322;28;20060;-77
2022/01/18 03:07:11;;;;;;;5.00;1.52;;;9.60;90.60;;;;;;5018286;28;20029;-77
2022/01/18 03:09:37;;;;;;;3.60;0.90;;;9.60;90.80;;;;;;5035878;28;20022;-78
2022/01/18 03:12:04;;;;;;;4.93;1.20;;;9.50;90.60;;;;;;5017915;28;20112;-78
2022/01/18 03:14:30;;;;;;;3.15;1.25;;;9.50;90.50;;;;;;5047775;23;20074;-77
2022/01/18 03:16:56;;;;;;;3.70;1.13;;;9.50;90.60;;;;;;4976108;28;20046;-78
2022/01/18 03:19:21;;;;;;;4.55;1.10;;;9.60;90.60;;;;;;4977539;28;20030;-77
2022/01/18 03:21:47;;;;;;;4.60;1.27;;;9.60;90.60;;;;;;4976075;28;20023;-77
2022/01/18 03:29:28;;;;;;;4.15;1.08;;;9.50;90.50;;;;;;4977585;28;20069;-77
2022/01/18 03:31:55;;;;;;;3.92;1.17;;;9.50;90.60;;;;;;4976050;28;20501;-77
2022/01/18 03:34:21;;;;;;;5.00;1.30;;;9.50;90.60;;;;;;4977371;28;20023;-77
2022/01/18 03:36:47;;;;;;;4.43;1.20;;;9.50;90.60;;;;;;4975776;28;20023;-77
2022/01/18 03:39:12;;;;;;;4.18;1.13;;;9.50;90.60;;;;;;4975898;28;20023;-77
2022/01/18 03:41:38;;;;;;;5.60;1.40;;;9.50;90.50;;;;;;4975697;28;20041;-77
2022/01/18 03:44:04;;;;;;;2.78;0.90;;;9.50;90.60;;;;;;4975967;28;20023;-78
2022/01/18 03:46:31;;;;;;;4.78;1.45;;;9.50;90.50;;;;;;4975934;28;20026;-77
2022/01/18 03:48:58;;;;;;;6.05;1.40;;;9.50;90.60;;;;;;4964292;28;20550;-77
2022/01/18 03:51:23;;;;;;;5.45;1.40;;;9.50;90.80;;;;;;4996124;28;20473;-78
2022/01/18 03:53:51;;;;;;;3.80;1.38;;;9.50;90.60;;;;;;4995293;28;20029;-78
2022/01/18 03:56:17;;;;;;;3.45;1.10;;;9.50;90.60;;;;;;4995995;28;20026;-78
2022/01/18 03:58:42;;;;;;;3.00;1.02;;;9.50;90.60;;;;;;4995178;28;20425;-77
2022/01/18 04:01:08;;;;;;;3.75;1.23;;;9.50;90.60;;;;;;4994716;28;20022;-77
2022/01/18 04:03:34;;;;;;;5.10;1.30;;;9.50;90.60;;;;;;4996150;28;20117;-77
2022/01/18 04:05:59;;;;;;;2.75;1.10;;;9.50;90.60;;;;;;4995063;28;20030;-78
2022/01/18 04:08:25;;;;;;;3.53;1.30;;;9.60;90.60;;;;;;4995303;28;20034;-77
2022/01/18 04:10:51;;;;;;;4.05;1.13;;;9.50;90.60;;;;;;4994535;28;20023;-78
2022/01/18 04:13:17;;;;;;;3.58;1.30;;;9.50;90.60;;;;;;4994949;28;20053;-78
2022/01/18 04:15:42;;;;;;;3.83;1.50;;;9.50;90.60;;;;;;4995899;28;20038;-77
2022/01/18 04:18:27;;;;;;;3.83;1.40;;;9.50;90.60;;;;;;4996116;28;20026;-78
2022/01/18 04:28:54;;;;;;;3.83;1.30;;;9.50;90.60;;;;;;4996250;28;20031;-77
2022/01/18 04:31:21;;;;;;;4.18;1.38;;;9.50;90.60;;;;;;4994308;28;20045;-78
2022/01/18 04:33:47;;;;;;;6.18;1.70;;;9.50;90.60;;;;;;4995791;28;20023;-77
2022/01/18 04:36:13;;;;;;;4.82;1.77;;;9.50;90.60;;;;;;4994133;28;20025;-77
2022/01/18 04:38:39;;;;;;;3.33;1.58;;;9.50;90.60;;;;;;4994133;28;20523;-77
2022/01/18 04:41:12;;;;;;;4.60;1.40;;;9.50;90.60;;;;;;4994062;28;20046;-78
2022/01/18 04:49:03;;;;;;;4.72;1.90;;;9.50;90.60;;;;;;4995725;28;20042;-78
2022/01/18 04:51:29;;;;;;;4.05;1.50;;;9.50;90.60;;;;;;4993977;28;20022;-77
2022/01/18 04:53:57;;;;;;;4.55;1.50;;;9.50;90.60;;;;;;4993994;28;20033;-78
2022/01/18 04:58:55;;;;;;;4.20;1.85;;;9.50;90.60;;;;;;4995607;28;20030;-77
2022/01/18 05:01:20;;;;;;;4.38;1.70;;;9.50;90.60;;;;;;4993566;28;20034;-79
2022/01/18 05:03:46;;;;;;;5.68;1.90;;;9.50;90.60;;;;;;4995101;28;20581;-76
2022/01/18 05:06:15;;;;;;;5.70;2.08;;;9.50;90.60;;;;;;4993733;28;20030;-76
2022/01/18 05:08:41;;;;;;;5.32;1.98;;;9.50;90.60;;;;;;4994985;28;20109;-76
2022/01/18 05:11:11;;;;;;;4.60;1.90;;;9.50;90.60;;;;;;4994860;28;20058;-78
2022/01/18 05:13:55;;;;;;;6.03;2.05;;;9.50;90.60;;;;;;4993882;28;20057;-78
2022/01/18 05:24:15;;;;;;;4.25;1.90;;;9.50;90.60;;;;;;4995014;28;20744;-78
2022/01/18 05:26:41;;;;;;;4.72;1.80;;;9.50;90.60;;;;;;4993485;28;20138;-78
2022/01/18 05:29:06;;;;;;;6.13;2.42;;;9.50;90.60;;;;;;4992937;28;20053;-77
2022/01/18 05:31:32;;;;;;;4.45;1.80;;;9.50;90.60;;;;;;4991387;28;20078;-78
2022/01/18 05:33:57;;;;;;;6.70;2.35;;;9.50;90.60;;;;;;4990252;28;20037;-77
2022/01/18 05:36:23;;;;;;;4.38;2.03;;;9.50;90.60;;;;;;4991885;28;20405;-77
2022/01/18 05:38:48;;;;;;;4.85;2.03;;;9.50;90.60;;;;;;4977357;28;20504;-77
2022/01/18 05:41:14;;;;;;;5.28;2.25;;;9.50;90.60;;;;;;4971227;28;20107;-77
2022/01/18 05:43:40;;;;;;;4.78;2.10;;;9.50;90.60;;;;;;4972037;28;20050;-77
2022/01/18 05:46:06;;;;;;;5.68;2.25;;;9.50;90.60;;;;;;4969633;28;20050;-78
2022/01/18 05:48:32;;;;;;;5.78;2.20;;;9.50;90.60;;;;;;4974605;28;20549;-78
2022/01/18 05:51:00;;;;;;;5.22;2.30;;;9.50;90.60;;;;;;4973612;28;20027;-80
2022/01/18 05:53:27;;;;;;;6.25;2.50;;;9.50;90.60;;;;;;4971254;28;20034;-76
2022/01/18 05:55:52;;;;;;;6.22;2.30;;;9.50;90.60;;;;;;4971621;28;20117;-79
2022/01/18 05:58:19;;;;;;;5.28;2.38;;;9.50;90.60;;;;;;4968294;28;20094;-78
2022/01/18 06:00:50;;;;;;;6.07;2.42;;;9.50;90.60;;;;;;4972470;28;20034;-78
2022/01/18 06:03:24;;;;;;;6.13;2.40;;;9.50;90.60;;;;;;4973058;28;20061;-79
2022/01/18 06:08:34;;;;;;;7.10;3.10;;;9.50;90.60;;;;;;4973617;28;20066;-79
2022/01/18 06:11:00;;;;;;;6.90;2.35;;;9.50;90.60;;;;;;4972714;28;20023;-80
2022/01/18 06:13:25;;;;;;;6.82;2.60;;;9.50;90.60;;;;;;4970580;28;20026;-77
2022/01/18 06:15:51;;;;;;;6.05;2.40;;;9.60;90.70;;;;;;4971194;28;20502;-80
2022/01/18 06:18:17;;;;;;;6.65;2.40;;;9.50;90.70;;;;;;4971239;28;20037;-77
2022/01/18 06:20:44;;;;;;;6.88;2.75;;;9.50;90.70;;;;;;4971227;28;20569;-83
2022/01/18 06:23:10;;;;;;;6.75;2.80;;;9.50;90.70;;;;;;4970907;28;20501;-77
2022/01/18 06:25:36;;;;;;;8.02;3.17;;;9.50;90.70;;;;;;4972493;28;20046;-77
2022/01/18 06:28:01;;;;;;;7.40;2.92;;;9.50;90.70;;;;;;4970510;28;20026;-78
2022/01/18 06:30:27;;;;;;;7.70;2.67;;;9.50;90.70;;;;;;4969967;28;20490;-78
2022/01/18 06:32:52;;;;;;;10.70;3.75;;;9.40;90.60;;;;;;4969447;28;20037;-77
2022/01/18 06:35:18;;;;;;;8.27;3.63;;;9.40;90.80;;;;;;4968874;28;20027;-76
2022/01/18 06:37:43;;;;;;;10.23;4.25;;;9.40;90.90;;;;;;4969866;28;20078;-76
2022/01/18 06:40:11;;;;;;;10.77;4.15;;;9.30;91.00;;;;;;4968501;28;20117;-76
2022/01/18 06:42:37;;;;;;;12.07;4.45;;;9.30;91.10;;;;;;4968562;28;20027;-76
2022/01/18 06:45:03;;;;;;;10.68;4.25;;;9.30;91.20;;;;;;4968546;28;20033;-77
2022/01/18 06:47:29;;;;;;;11.77;4.82;;;9.30;91.30;;;;;;4968403;28;20030;-76
2022/01/18 06:49:55;;;;;;;11.65;4.57;;;9.30;91.30;;;;;;4969426;28;20053;-76
2022/01/18 06:52:20;;;;;;;13.35;4.78;;;9.20;91.30;;;;;;4968665;28;20388;-76
2022/01/18 06:54:46;;;;;;;13.25;4.88;;;9.30;91.30;;;;;;4971398;28;20375;-77
2022/01/18 06:57:12;;;;;;;11.57;4.53;;;9.20;91.30;;;;;;4973873;28;20014;-77
2022/01/18 06:59:37;;;;;;;12.80;5.03;;;9.20;91.30;;;;;;4972133;28;20512;-75
2022/01/18 07:02:04;;;;;;;12.00;4.30;;;9.20;91.30;;;;;;4972051;28;20097;-76
2022/01/18 07:04:29;;;;;;;12.40;5.00;;;9.20;91.30;;;;;;4972749;28;20022;-77
2022/01/18 07:06:55;;;;;;;12.63;5.20;;;9.30;91.40;;;;;;4972608;28;20042;-76
2022/01/18 07:09:23;;;;;;;9.95;4.40;;;9.20;91.40;;;;;;4972496;28;20030;-77
2022/01/18 07:11:50;;;;;;;12.45;5.05;;;9.20;91.40;;;;;;4972283;28;20031;-76
2022/01/18 07:14:15;;;;;;;11.25;4.35;;;9.20;91.40;;;;;;4972375;28;20035;-77
2022/01/18 07:16:41;;;;;;;11.55;4.57;;;9.20;91.40;;;;;;4973746;28;20169;-76
2022/01/18 07:19:07;;;;;;;12.80;4.57;;;9.20;91.40;;;;;;4972416;28;20033;-76
2022/01/18 07:21:32;;;;;;;13.50;5.28;;;9.20;91.70;;;;;;4973486;28;20033;-77
2022/01/18 07:24:04;;;;;;;13.60;5.07;;;9.20;91.50;;;;;;4973758;28;20042;-77
2022/01/18 07:26:31;;;;;;;10.57;4.88;;;9.20;91.50;;;;;;4973562;28;20027;-76
2022/01/18 07:28:57;;;;;;;10.95;5.00;;;9.20;91.50;;;;;;4972355;28;20027;-77
2022/01/18 07:31:22;;;;;;;13.35;5.07;;;9.20;91.50;;;;;;4972133;28;20418;-76
2022/01/18 07:33:48;;;;;;;12.35;4.82;;;9.20;91.50;;;;;;4972453;28;20394;-77
2022/01/18 07:36:14;;;;;;;10.70;4.70;;;9.20;91.50;;;;;;4972324;28;20031;-77
2022/01/18 07:38:39;;;;;;;10.23;5.25;;;9.20;91.50;;;;;;4972187;28;20023;-76
2022/01/18 07:41:05;;;;;;;11.07;4.97;;;9.20;91.60;;;;;;4971975;28;20066;-76
2022/01/18 07:43:30;;;;;;;13.18;5.15;;;9.20;91.60;;;;;;4972472;28;20033;-77
2022/01/18 07:45:56;;;;;;;11.80;4.50;;;9.20;91.60;;;;;;4975671;28;20486;-76
2022/01/18 07:48:23;;;;;;;11.20;4.93;;;9.20;91.60;;;;;;4975684;28;20057;-77
2022/01/18 07:50:53;;;;;;;12.88;5.47;;;9.20;91.60;;;;;;4976638;28;20046;-78
2022/01/18 07:53:19;;;;;;;13.27;4.68;;;9.20;91.60;;;;;;4975903;28;20018;-77
2022/01/18 07:55:47;;;;;;;11.45;4.80;;;9.20;91.60;;;;;;4975493;28;20536;-77
2022/01/18 07:58:12;;;;;;;12.85;5.28;;;9.20;91.60;;;;;;4975502;28;20054;-77
2022/01/18 08:00:38;;;;;;;11.77;4.72;;;9.20;91.60;;;;;;4975613;28;20054;-77
2022/01/18 08:03:03;;;;;;;14.85;5.20;;;9.20;91.60;;;;;;4976765;28;20030;-78
2022/01/18 08:05:29;;;;;;;14.18;4.90;;;9.20;91.60;;;;;;4975409;28;20038;-77
2022/01/18 08:07:55;;;;;;;14.75;5.53;;;9.20;91.70;;;;;;4975404;28;20033;-77
2022/01/18 08:10:21;;;;;;;12.23;4.47;;;9.20;91.70;;;;;;4974941;28;20066;-77
2022/01/18 08:12:46;;;;;;;12.07;4.93;;;9.20;91.60;;;;;;4975350;28;20034;-76
2022/01/18 08:15:20;;;;;;;13.18;4.82;;;9.20;91.90;;;;;;4976194;28;20035;-78
2022/01/18 08:17:49;;;;;;;11.50;4.00;;;9.20;91.70;;;;;;4976377;28;20023;-77
2022/01/18 08:20:15;;;;;;;11.88;5.20;;;9.20;91.70;;;;;;4975035;28;20031;-77
2022/01/18 08:22:42;;;;;;;12.18;4.57;;;9.20;91.70;;;;;;4976338;28;20100;-78
2022/01/18 08:25:08;;;;;;;11.20;4.80;;;9.20;91.70;;;;;;4974813;28;20038;-76
2022/01/18 08:27:34;;;;;;;13.75;4.65;;;9.20;91.70;;;;;;4974790;28;20114;-77
2022/01/18 08:29:59;;;;;;;14.20;4.95;;;9.20;91.70;;;;;;4974856;28;20065;-77
2022/01/18 08:32:25;;;;;;;13.38;5.22;;;9.20;91.70;;;;;;4974658;28;20019;-79
2022/01/18 08:34:50;;;;;;;12.20;4.95;;;9.20;91.70;;;;;;4972855;28;20141;-77
2022/01/18 08:37:17;;;;;;;13.20;4.88;;;9.20;91.70;;;;;;4974985;28;20085;-77
2022/01/18 08:39:43;;;;;;;14.05;5.13;;;9.20;91.70;;;;;;4974815;28;20058;-78
2022/01/18 08:42:08;;;;;;;12.80;4.68;;;9.20;91.70;;;;;;4974655;28;20050;-77
2022/01/18 08:44:35;;;;;;;11.90;4.68;;;9.20;91.70;;;;;;4974644;28;20471;-77
2022/01/18 08:47:00;;;;;;;14.75;5.68;;;9.20;91.70;;;;;;4974437;28;20023;-76
2022/01/18 08:49:26;;;;;;;12.35;4.70;;;9.20;91.70;;;;;;4974506;28;20122;-79
2022/01/18 08:51:52;;;;;;;12.52;5.13;;;9.20;91.70;;;;;;4974106;28;20026;-77
2022/01/18 08:54:18;;;;;;;12.27;4.78;;;9.20;91.70;;;;;;4974104;28;20055;-77
2022/01/18 08:56:43;;;;;;;11.25;5.15;;;9.20;91.70;;;;;;4974470;28;20030;-76
2022/01/18 08:59:09;;;;;;;13.40;5.10;;;9.20;91.70;;;;;;4974386;28;20034;-77
2022/01/18 09:01:34;;;;;;;14.68;5.13;;;9.20;91.70;;;;;;4974173;28;20027;-77
2022/01/18 09:04:01;;;;;;;12.80;4.88;;;9.20;91.70;;;;;;4974440;28;20034;-77
2022/01/18 09:06:29;;;;;;;12.40;4.53;;;9.20;91.70;;;;;;4975293;28;20031;-77
2022/01/18 09:08:56;;;;;;;9.75;4.20;;;9.20;91.70;;;;;;4974165;28;20027;-78
2022/01/18 09:11:28;;;;;;;11.40;4.63;;;9.20;91.70;;;;;;4974004;28;20037;-76
2022/01/18 09:13:54;;;;;;;13.13;4.72;;;9.20;91.70;;;;;;4975166;28;20102;-76
2022/01/18 09:16:20;;;;;;;13.30;4.70;;;9.20;91.70;;;;;;5041868;23;20132;-77
2022/01/18 09:18:47;;;;;;;11.90;4.55;;;9.20;91.70;;;;;;5032043;28;20025;-76
2022/01/18 09:21:14;;;;;;;12.70;4.75;;;9.20;91.80;;;;;;5031979;28;20030;-76
2022/01/18 09:23:39;;;;;;;9.55;4.00;;;9.20;91.70;;;;;;5033509;28;20101;-76
2022/01/18 09:26:06;;;;;;;14.40;5.13;;;9.20;91.70;;;;;;5033426;28;20052;-77
2022/01/18 09:28:32;;;;;;;14.15;4.70;;;9.20;91.80;;;;;;5032028;28;20408;-76
2022/01/18 09:30:59;;;;;;;11.50;4.57;;;9.20;91.70;;;;;;5031847;28;20108;-76
2022/01/18 09:33:25;;;;;;;11.32;4.38;;;9.20;92.00;;;;;;5032055;28;20488;-75
2022/01/18 09:35:50;;;;;;;11.93;4.57;;;9.20;91.70;;;;;;5032923;28;20056;-75
2022/01/18 09:38:16;;;;;;;14.23;4.63;;;9.20;91.70;;;;;;5032066;28;20112;-75
2022/01/18 09:40:44;;;;;;;11.45;4.20;;;9.20;91.70;;;;;;5031732;28;20022;-76
2022/01/18 09:43:13;;;;;;;12.93;4.55;;;9.20;91.70;;;;;;5033012;28;20400;-76
2022/01/18 09:45:41;;;;;;;11.25;4.50;;;9.20;91.70;;;;;;5031662;28;20021;-75
2022/01/18 09:48:08;;;;;;;12.50;4.43;;;9.20;91.70;;;;;;5031733;28;20032;-75
2022/01/18 09:50:36;;;;;;;11.75;4.57;;;9.20;91.70;;;;;;5031472;28;20062;-76
2022/01/18 09:53:04;;;;;;;11.63;4.25;;;9.30;91.70;;;;;;5032953;28;20017;-75
2022/01/18 09:55:32;;;;;;;11.27;4.22;;;9.20;91.70;;;;;;5031586;28;20026;-75
2022/01/18 09:57:58;;;;;;;11.90;4.30;;;9.20;91.60;;;;;;5031537;28;20049;-75
2022/01/18 10:00:30;;;;;;;13.25;5.05;;;9.30;91.70;;;;;;5031276;28;20032;-75
2022/01/18 10:02:56;;;;;;;11.32;4.40;;;9.30;91.70;;;;;;5031658;28;20029;-75
2022/01/18 10:05:28;;;;;;;10.02;3.97;;;9.30;91.70;;;;;;5031427;28;20030;-75
2022/01/18 10:08:15;;;;;;;9.85;3.75;;;9.30;91.70;;;;;;5032173;28;20112;-75
2022/01/18 10:10:47;;;;;;;10.73;3.78;;;9.30;91.60;;;;;;5031225;28;20407;-76
2022/01/18 10:13:22;;;;;;;10.45;3.83;;;9.20;91.60;;;;;;5031446;28;20018;-76
2022/01/18 10:16:20;;;;;;;11.65;4.05;;;9.30;91.60;;;;;;5032428;28;20029;-76
2022/01/18 10:18:55;;;;;;;10.93;4.10;;;9.30;91.70;;;;;;5020195;28;20561;-76
2022/01/18 10:21:30;;;;;;;12.32;3.85;;;9.30;91.60;;;;;;5031131;28;20191;-76
2022/01/18 10:24:16;;;;;;;10.52;3.80;;;9.30;91.60;;;;;;5031350;28;20037;-76
2022/01/18 10:26:42;;;;;;;11.40;4.07;;;9.30;91.60;;;;;;5031173;28;20075;-76
2022/01/18 10:29:09;;;;;;;9.43;3.35;;;9.30;91.60;;;;;;5031160;28;20021;-76
2022/01/18 10:31:45;;;;;;;11.10;4.47;;;9.30;91.60;;;;;;5032105;28;20482;-75
2022/01/18 10:34:22;;;;;;;11.25;4.45;;;9.30;91.60;;;;;;5031234;28;20036;-75
2022/01/18 10:37:13;;;;;;;11.25;4.70;;;9.30;91.60;;;;;;5031120;28;20447;-76
2022/01/18 10:39:46;;;;;;;9.00;3.67;;;9.30;91.60;;;;;;5023742;28;20048;-77
2022/01/18 10:42:16;;;;;;;11.38;3.75;;;9.30;91.60;;;;;;5030737;28;20033;-76
2022/01/18 10:44:42;;;;;;;9.95;4.18;;;9.30;91.60;;;;;;5030957;28;20033;-75
2022/01/18 10:47:07;;;;;;;10.95;4.25;;;9.30;91.60;;;;;;5031086;28;20029;-75
2022/01/18 10:49:41;;;;;;;10.07;4.30;;;9.30;91.60;;;;;;5030982;28;20028;-76
2022/01/18 10:52:12;;;;;;;10.35;4.03;;;9.30;91.60;;;;;;5032069;28;20022;-75
2022/01/18 10:54:46;;;;;;;9.80;3.88;;;9.30;91.50;;;;;;5032186;28;20026;-75
2022/01/18 10:57:17;;;;;;;10.88;4.30;;;9.30;91.60;;;;;;5030898;28;20099;-75
2022/01/18 10:59:43;;;;;;;9.32;4.00;;;9.30;91.60;;;;;;5030959;28;20119;-76
2022/01/18 11:02:10;;;;;;;10.15;3.92;;;9.30;91.60;;;;;;5031910;28;20025;-76
2022/01/18 11:04:39;;;;;;;10.43;4.00;;;9.30;91.50;;;;;;5030881;28;20029;-75
2022/01/18 11:07:05;;;;;;;8.48;3.58;;;9.40;91.60;;;;;;5032168;28;20028;-75
2022/01/18 11:09:32;;;;;;;8.00;3.55;;;9.40;91.50;;;;;;5030662;28;20034;-76
2022/01/18 11:11:58;;;;;;;8.82;3.85;;;9.40;91.60;;;;;;5030552;28;20104;-75
2022/01/18 11:14:25;;;;;;;10.57;4.05;;;9.40;91.50;;;;;;5030820;28;20045;-75
2022/01/18 11:16:55;;;;;;;10.27;3.95;;;9.40;91.50;;;;;;5030527;28;20034;-76
2022/01/18 11:21:49;;;;;;;10.73;3.95;;;9.40;91.50;;;;;;5035846;28;20588;-75
2022/01/18 11:24:16;;;;;;;8.18;3.85;;;9.40;91.40;;;;;;5034528;28;20021;-76
2022/01/18 11:26:43;;;;;;;9.88;3.88;;;9.40;91.40;;;;;;5035527;28;20025;-74
2022/01/18 11:29:10;;;;;;;9.82;4.15;;;9.40;91.40;;;;;;5035498;28;20067;-75
2022/01/18 11:31:37;;;;;;;8.93;3.67;;;9.40;91.40;;;;;;5034089;28;20493;-75
2022/01/18 11:34:05;;;;;;;9.10;3.67;;;9.40;91.40;;;;;;5034195;28;20033;-75
2022/01/18 11:36:39;;;;;;;8.38;3.80;;;9.40;91.30;;;;;;5034057;28;20508;-77
2022/01/18 11:39:08;;;;;;;8.40;3.80;;;9.40;91.30;;;;;;5035390;28;20033;-76
2022/01/18 11:41:35;;;;;;;8.68;3.60;;;9.40;91.30;;;;;;5033862;28;20025;-76
2022/01/18 11:44:26;;;;;;;8.15;3.55;;;9.40;91.30;;;;;;5034125;28;20036;-77
2022/01/18 11:46:55;;;;;;;7.78;3.28;;;9.40;91.30;;;;;;5035207;28;20025;-76
2022/01/18 11:49:30;;;;;;;8.63;3.80;;;9.40;91.30;;;;;;5035183;28;20026;-76
2022/01/18 11:52:09;;;;;;;9.00;3.88;;;9.40;91.30;;;;;;5034975;28;20018;-76
2022/01/18 11:57:03;;;;;;;8.23;3.53;;;9.40;91.30;;;;;;5035032;28;20041;-76
2022/01/18 11:59:40;;;;;;;9.05;3.83;;;9.40;91.30;;;;;;5033875;28;20026;-75
2022/01/18 12:02:06;;;;;;;9.38;3.47;;;9.40;91.40;;;;;;5033771;28;20484;-75
2022/01/18 12:04:39;;;;;;;8.77;3.42;;;9.40;91.40;;;;;;5035119;28;20487;-77
2022/01/18 12:07:05;;;;;;;9.50;3.85;;;9.40;91.40;;;;;;5033769;28;20035;-76
2022/01/18 12:09:38;;;;;;;8.65;3.45;;;9.40;91.40;;;;;;5033556;28;20034;-74
2022/01/18 12:12:09;;;;;;;8.88;3.58;;;9.40;91.40;;;;;;5034730;28;20056;-76
2022/01/18 12:14:34;;;;;;;8.32;3.30;;;9.40;91.40;;;;;;5033367;28;20053;-76
2022/01/18 12:17:14;;;;;;;7.75;3.58;;;9.40;91.40;;;;;;5033452;28;20060;-76
2022/01/18 12:19:44;;;;;;;10.00;3.42;;;9.40;91.40;;;;;;5033564;28;20026;-77
2022/01/18 12:22:11;;;;;;;8.35;3.40;;;9.40;91.40;;;;;;5033148;28;20036;-76
2022/01/18 12:24:37;;;;;;;8.23;3.38;;;9.40;91.40;;;;;;5033331;28;20025;-75
2022/01/18 12:27:25;;;;;;;7.57;3.70;;;9.40;91.40;;;;;;5034555;28;20024;-75
2022/01/18 12:33:16;;;;;;;8.13;3.55;;;9.50;91.40;;;;;;5034797;28;20052;-76
2022/01/18 12:35:42;;;;;;;6.85;3.05;;;9.50;91.20;;;;;;5032831;28;20535;-76
2022/01/18 12:38:10;;;;;;;9.38;3.17;;;9.50;91.10;;;;;;5033133;28;20101;-75
2022/01/18 12:40:43;;;;;;;7.03;2.97;;;9.50;91.10;;;;;;5034064;28;20108;-75
2022/01/18 12:45:38;;;;;;;7.85;3.17;;;9.50;91.10;;;;;;5034019;28;20515;-75
2022/01/18 12:48:10;;;;;;;7.70;2.97;;;9.50;91.20;;;;;;5034121;28;20021;-76
2022/01/18 12:50:38;;;;;;;;;;;9.50;91.30;;;;;;5034329;28;20033;-79
2022/01/18 12:53:16;;;;;;;8.40;3.03;;;9.50;91.20;;;;;;5032767;28;20276;-74
2022/01/18 12:55:46;;;;;;;7.43;3.03;;;9.60;91.20;;;;;;5033989;28;20033;-75
2022/01/18 12:58:21;;;;;;;7.22;3.17;;;9.70;91.10;;;;;;5032803;28;20026;-76
2022/01/18 13:01:00;;;;;;;7.57;2.90;;;9.70;91.00;;;;;;5033573;28;20029;-76
2022/01/18 13:03:29;;;;;;;8.82;3.10;;;9.70;91.00;;;;;;5032871;28;20387;-76
2022/01/18 13:06:00;;;;;;;9.35;3.03;;;9.80;90.90;;;;;;5032508;28;20030;-76
2022/01/18 13:08:37;;;;;;;8.13;2.92;;;9.80;90.80;;;;;;5032515;28;20018;-76
2022/01/18 13:11:03;;;;;;;8.68;3.33;;;9.80;90.70;;;;;;5032168;28;20028;-77
2022/01/18 13:13:31;;;;;;;6.53;2.72;;;9.80;90.70;;;;;;5032376;28;20026;-76
2022/01/18 13:26:53;;;;;;;9.07;3.28;;;9.80;90.40;;;;;;5033553;28;20545;-74
2022/01/18 13:29:27;;;;;;;9.10;2.88;;;9.70;90.50;;;;;;5031923;28;20495;-74
2022/01/18 13:32:22;;;;;;;7.50;2.90;;;9.70;90.60;;;;;;5033014;28;20392;-82
2022/01/18 13:34:58;;;;;;;7.85;2.78;;;9.70;90.70;;;;;;5030779;28;20042;-75
2022/01/18 13:37:27;;;;;;;7.85;2.90;;;9.70;90.70;;;;;;5033004;28;20017;-75
2022/01/18 13:39:55;;;;;;;6.65;2.90;;;9.70;90.70;;;;;;5031952;28;20123;-75
2022/01/18 13:42:36;;;;;;;8.27;3.28;;;9.60;90.70;;;;;;5032779;28;20026;-75
2022/01/18 13:45:13;;;;;;;8.70;2.92;;;9.70;90.80;;;;;;5033046;28;20036;-75
2022/01/18 13:48:00;;;;;;;9.52;2.92;;;9.70;90.80;;;;;;5031762;28;20032;-74
2022/01/18 13:50:46;;;;;;;8.27;3.80;;;9.70;90.70;;;;;;5032808;28;20025;-76
2022/01/18 13:53:14;;;;;;;7.25;2.80;;;9.70;90.70;;;;;;5032925;28;20096;-76
2022/01/18 13:55:49;;;;;;;7.28;2.72;;;9.70;90.60;;;;;;5031688;28;20026;-75
2022/01/18 13:58:23;;;;;;;8.80;2.85;;;9.70;90.60;;;;;;5031692;28;20026;-75
2022/01/18 14:00:49;;;;;;;9.75;3.65;;;9.70;90.70;;;;;;5032679;28;20027;-73
2022/01/18 14:03:29;;;;;;;8.27;2.78;;;9.70;90.70;;;;;;5032656;28;20096;-75
2022/01/18 14:05:55;;;;;;;7.97;3.10;;;9.70;90.80;;;;;;5031570;28;20017;-76
2022/01/18 14:08:20;;;;;;;11.05;3.78;;;9.60;90.80;;;;;;5032665;28;20028;-75
2022/01/18 14:11:02;;;;;;;7.85;2.65;;;9.60;90.80;;;;;;5031187;28;20362;-75
2022/01/18 14:13:30;;;;;;;9.40;2.95;;;9.60;90.80;;;;;;5031489;28;20098;-75
2022/01/18 14:15:56;;;;;;;8.20;3.13;;;9.60;90.90;;;;;;5032386;28;20022;-75
2022/01/18 14:18:21;;;;;;;7.38;2.95;;;9.60;90.90;;;;;;5031230;28;20036;-74
2022/01/18 14:20:47;;;;;;;8.43;2.90;;;9.60;90.90;;;;;;5032251;28;20025;-74
2022/01/18 14:23:21;;;;;;;7.70;2.78;;;9.60;90.90;;;;;;5031575;28;20046;-75
2022/01/18 14:25:48;;;;;;;7.78;2.88;;;9.60;91.00;;;;;;5032411;28;20021;-75
2022/01/18 14:28:15;;;;;;;6.72;2.63;;;9.60;91.00;;;;;;5031301;28;20156;-75
2022/01/18 14:30:43;;;;;;;9.05;2.95;;;9.60;91.00;;;;;;5032135;28;20033;-74
2022/01/18 14:33:13;;;;;;;10.40;3.20;;;9.60;91.00;;;;;;5031132;28;20025;-75